Milan, IN

11:21 PM EST on January 31, 2015 (GMT -0500)
Harrison Ohio | Change Station
CLOSE
Current Station
Personal Weather Station
Location: Harrison, OH
Elevation: 814 ft
Nearby Weather Stations
Active Advisory: Winter Weather Advisory

Elev 814 ft 39.28 °N, 84.77 °W | Updated 39 seconds ago

Ice Pellets
Ice Pellets
33.3 °F
Feels Like 33 °F
N
1.6
Wind Variable Wind from South
Gusts 1.6 mph

Today
High -- | Low -- °F
--% Chance of Precip.
Yesterday
High -- | Low -- °F
Precip. -- in
7:48 AM 6:00 PM
Waxing Gibbous, 93% visible
Pressure 30.25 in
Visibility 8.0 miles
Clouds Overcast 4200 ft
Windchill 33 °F
Dew Point 27 °F
Humidity 78%
Rainfall 0.00 in
Snow Depth Not available.
UV 0 out of 12
Pollen .10 out of 12
Air Quality Not available.
Flu Activity Not available.
METAR KCVG 010352Z 00000KT 8SM -RA OVC042 01/M03 A3022 RMK AO2 RAE08B25DZB09E25 SLP241 P0001 T00111033

More Conditions Fewer Conditions

Pressure 30.25 in
Visibility 8.0 miles
Clouds Overcast 4200 ft
Windchill 33 °F
Dew Point 27 °F
Humidity 78%
Rainfall 0.00 in
Snow Depth Not available.
UV 0 out of 12
Pollen .10 out of 12
Air Quality Not available.
Flu Activity Not available.
METAR KCVG 010352Z 00000KT 8SM -RA OVC042 01/M03 A3022 RMK AO2 RAE08B25DZB09E25 SLP241 P0001 T00111033

More Conditions Fewer Conditions

10-Day Weather Forecast

Almanac

Astronomy

Jan. 31, 2015 Rise Set
Actual Time
Civil Twilight
Nautical Twilight
Astronomical Twilight
Moon
Length of Visible Light
Length of Day
Tomorrow will be .
, % of the Moon is Illuminated

Today's Extremes

State Highs State Lows

Community

WunderPhotos

Upload Photos

1,792,308 photos uploaded!

WunderBlogs® & News

Nearby

Air Quality

  Air Quality AQ Index Pollutant
Not available.

Snow Depth

Station Depth Elevation

Earthquake Activity

City Distance Mag. Time & Date
Minimum magnitude displayed is 2.5.

Coastal Water Temperatures

Place Temperature

Nearby Weather Stations